Austin, Texas
Traffic Map
Current Weather Conditions
Austin, Texas
Clear
Clear
81°
Feels Like: 86°
Wind Chill: 81° Ceiling: Unl
Heat Index: 86° Visibility: mi
Dew Point: 74° Wind: 5mph
Humidity: 79% Direction: ° ()
Pressure: 30.01in Gusts: 0mph
Raw Report DataKATT 310651Z AUTO VRB04KT CLR 27/23 A3001 RMK AO2 SLP147 T02720233 $
Traffic Incident Summary
Active as of:
Severity:
Category:
InformationThere was an issue retrieving the traffic information for this location. Please try a different location or try again shortly.
Advertisements
Track Severe Weather on mobile